sensor_id;sensor_type;location;lat;lon;timestamp;P1;durP1;ratioP1;P2;durP2;ratioP2
57323;SDS011;43160;51.008;18.248;2022-10-16T00:07:07;20.00;;;9.30;;
57323;SDS011;43160;51.008;18.248;2022-10-16T00:24:08;21.90;;;10.60;;
57323;SDS011;43160;51.008;18.248;2022-10-16T00:33:53;19.70;;;10.00;;
57323;SDS011;43160;51.008;18.248;2022-10-16T00:51:38;25.80;;;11.20;;
57323;SDS011;43160;51.008;18.248;2022-10-16T01:01:56;18.70;;;9.00;;
57323;SDS011;43160;51.008;18.248;2022-10-16T01:11:59;18.90;;;7.40;;
57323;SDS011;43160;51.008;18.248;2022-10-16T01:29:46;28.30;;;14.30;;
57323;SDS011;43160;51.008;18.248;2022-10-16T01:39:42;26.00;;;12.50;;
57323;SDS011;43160;51.008;18.248;2022-10-16T01:49:32;29.20;;;12.70;;
57323;SDS011;43160;51.008;18.248;2022-10-16T01:59:18;34.90;;;15.30;;
57323;SDS011;43160;51.008;18.248;2022-10-16T02:09:07;21.80;;;9.40;;
57323;SDS011;43160;51.008;18.248;2022-10-16T02:19:02;35.80;;;14.40;;
57323;SDS011;43160;51.008;18.248;2022-10-16T02:28:59;26.90;;;13.80;;
57323;SDS011;43160;51.008;18.248;2022-10-16T02:38:46;28.80;;;13.20;;
57323;SDS011;43160;51.008;18.248;2022-10-16T02:48:29;25.70;;;13.30;;
57323;SDS011;43160;51.008;18.248;2022-10-16T02:58:14;23.70;;;10.90;;
57323;SDS011;43160;51.008;18.248;2022-10-16T03:07:56;28.00;;;12.60;;
57323;SDS011;43160;51.008;18.248;2022-10-16T03:17:42;26.10;;;12.60;;
57323;SDS011;43160;51.008;18.248;2022-10-16T03:27:27;30.10;;;12.70;;
57323;SDS011;43160;51.008;18.248;2022-10-16T03:37:11;22.60;;;9.80;;
57323;SDS011;43160;51.008;18.248;2022-10-16T03:46:55;23.80;;;10.40;;
57323;SDS011;43160;51.008;18.248;2022-10-16T03:56:38;23.60;;;10.60;;
57323;SDS011;43160;51.008;18.248;2022-10-16T04:06:21;23.90;;;12.90;;
57323;SDS011;43160;51.008;18.248;2022-10-16T04:16:04;15.80;;;7.00;;
57323;SDS011;43160;51.008;18.248;2022-10-16T04:25:49;32.10;;;13.30;;
57323;SDS011;43160;51.008;18.248;2022-10-16T04:35:34;24.50;;;10.80;;
57323;SDS011;43160;51.008;18.248;2022-10-16T04:45:17;24.00;;;11.20;;
57323;SDS011;43160;51.008;18.248;2022-10-16T04:54:59;24.10;;;11.80;;
57323;SDS011;43160;51.008;18.248;2022-10-16T05:04:45;22.60;;;10.40;;
57323;SDS011;43160;51.008;18.248;2022-10-16T05:14:29;26.50;;;14.50;;
57323;SDS011;43160;51.008;18.248;2022-10-16T05:24:12;37.50;;;12.10;;
57323;SDS011;43160;51.008;18.248;2022-10-16T05:33:59;31.50;;;15.60;;
57323;SDS011;43160;51.008;18.248;2022-10-16T05:43:49;27.30;;;13.50;;
57323;SDS011;43160;51.008;18.248;2022-10-16T05:53:34;23.20;;;11.20;;
57323;SDS011;43160;51.008;18.248;2022-10-16T06:03:29;31.10;;;13.90;;
57323;SDS011;43160;51.008;18.248;2022-10-16T06:13:13;26.70;;;13.20;;
57323;SDS011;43160;51.008;18.248;2022-10-16T06:23:01;27.10;;;12.40;;
57323;SDS011;43160;51.008;18.248;2022-10-16T06:32:44;16.70;;;7.50;;
57323;SDS011;43160;51.008;18.248;2022-10-16T06:49:48;21.80;;;9.60;;
57323;SDS011;43160;51.008;18.248;2022-10-16T06:59:31;24.20;;;12.00;;
57323;SDS011;43160;51.008;18.248;2022-10-16T07:09:13;25.50;;;13.30;;
57323;SDS011;43160;51.008;18.248;2022-10-16T07:19:04;31.80;;;14.30;;
57323;SDS011;43160;51.008;18.248;2022-10-16T07:28:49;31.40;;;12.70;;
57323;SDS011;43160;51.008;18.248;2022-10-16T07:45:53;22.90;;;11.10;;
57323;SDS011;43160;51.008;18.248;2022-10-16T07:55:37;22.50;;;11.40;;
57323;SDS011;43160;51.008;18.248;2022-10-16T08:05:26;20.30;;;9.70;;
57323;SDS011;43160;51.008;18.248;2022-10-16T08:15:10;24.50;;;12.90;;
57323;SDS011;43160;51.008;18.248;2022-10-16T08:24:54;22.10;;;11.10;;
57323;SDS011;43160;51.008;18.248;2022-10-16T08:34:39;20.00;;;11.60;;
57323;SDS011;43160;51.008;18.248;2022-10-16T09:16:24;20.70;;;12.30;;
57323;SDS011;43160;51.008;18.248;2022-10-16T09:26:34;20.90;;;10.50;;
57323;SDS011;43160;51.008;18.248;2022-10-16T09:36:23;16.70;;;8.30;;
57323;SDS011;43160;51.008;18.248;2022-10-16T09:46:30;14.40;;;5.00;;
57323;SDS011;43160;51.008;18.248;2022-10-16T09:56:36;13.50;;;7.30;;
57323;SDS011;43160;51.008;18.248;2022-10-16T10:06:31;15.50;;;8.50;;
57323;SDS011;43160;51.008;18.248;2022-10-16T10:16:41;17.10;;;7.40;;
57323;SDS011;43160;51.008;18.248;2022-10-16T10:26:30;17.30;;;9.50;;
57323;SDS011;43160;51.008;18.248;2022-10-16T10:36:29;15.60;;;5.90;;
57323;SDS011;43160;51.008;18.248;2022-10-16T10:54:51;15.60;;;9.00;;
57323;SDS011;43160;51.008;18.248;2022-10-16T11:45:52;9.70;;;3.80;;
57323;SDS011;43160;51.008;18.248;2022-10-16T12:03:46;20.30;;;9.40;;
57323;SDS011;43160;51.008;18.248;2022-10-16T12:14:06;19.60;;;9.30;;
57323;SDS011;43160;51.008;18.248;2022-10-16T12:24:00;16.60;;;9.00;;
57323;SDS011;43160;51.008;18.248;2022-10-16T12:34:01;9.30;;;3.00;;
57323;SDS011;43160;51.008;18.248;2022-10-16T12:43:51;19.50;;;9.10;;
57323;SDS011;43160;51.008;18.248;2022-10-16T13:15:19;15.90;;;9.00;;
57323;SDS011;43160;51.008;18.248;2022-10-16T13:25:28;18.50;;;8.40;;
57323;SDS011;43160;51.008;18.248;2022-10-16T13:43:18;15.70;;;8.40;;
57323;SDS011;43160;51.008;18.248;2022-10-16T13:53:23;14.80;;;7.90;;
57323;SDS011;43160;51.008;18.248;2022-10-16T14:03:12;16.90;;;7.10;;
57323;SDS011;43160;51.008;18.248;2022-10-16T14:13:44;18.20;;;8.70;;
57323;SDS011;43160;51.008;18.248;2022-10-16T14:23:37;19.40;;;8.40;;
57323;SDS011;43160;51.008;18.248;2022-10-16T14:31:02;16.90;;;8.60;;
57323;SDS011;43160;51.008;18.248;2022-10-16T14:41:20;12.80;;;5.80;;
57323;SDS011;43160;51.008;18.248;2022-10-16T14:51:14;13.90;;;6.50;;
57323;SDS011;43160;51.008;18.248;2022-10-16T15:01:15;17.40;;;8.90;;
57323;SDS011;43160;51.008;18.248;2022-10-16T15:11:23;17.60;;;8.50;;
57323;SDS011;43160;51.008;18.248;2022-10-16T15:21:23;19.00;;;9.40;;
57323;SDS011;43160;51.008;18.248;2022-10-16T15:31:10;27.50;;;14.90;;
57323;SDS011;43160;51.008;18.248;2022-10-16T15:40:54;34.30;;;16.50;;
57323;SDS011;43160;51.008;18.248;2022-10-16T15:50:55;25.20;;;14.20;;
57323;SDS011;43160;51.008;18.248;2022-10-16T16:00:39;24.00;;;12.10;;
57323;SDS011;43160;51.008;18.248;2022-10-16T16:10:22;21.50;;;11.00;;
57323;SDS011;43160;51.008;18.248;2022-10-16T16:20:10;19.70;;;9.50;;
57323;SDS011;43160;51.008;18.248;2022-10-16T16:29:58;26.30;;;13.10;;
57323;SDS011;43160;51.008;18.248;2022-10-16T16:39:42;26.30;;;11.20;;
57323;SDS011;43160;51.008;18.248;2022-10-16T16:49:28;29.60;;;19.30;;
57323;SDS011;43160;51.008;18.248;2022-10-16T16:59:15;34.90;;;14.90;;
57323;SDS011;43160;51.008;18.248;2022-10-16T17:09:04;23.40;;;14.30;;
57323;SDS011;43160;51.008;18.248;2022-10-16T17:26:13;28.60;;;15.10;;
57323;SDS011;43160;51.008;18.248;2022-10-16T17:36:03;29.50;;;15.50;;
57323;SDS011;43160;51.008;18.248;2022-10-16T17:45:47;26.40;;;15.30;;
57323;SDS011;43160;51.008;18.248;2022-10-16T17:55:31;26.50;;;11.70;;
57323;SDS011;43160;51.008;18.248;2022-10-16T18:05:14;32.40;;;17.40;;
57323;SDS011;43160;51.008;18.248;2022-10-16T18:14:59;33.20;;;17.00;;
57323;SDS011;43160;51.008;18.248;2022-10-16T18:24:43;30.60;;;15.40;;
57323;SDS011;43160;51.008;18.248;2022-10-16T18:34:27;30.20;;;14.50;;
57323;SDS011;43160;51.008;18.248;2022-10-16T18:44:14;17.50;;;8.20;;
57323;SDS011;43160;51.008;18.248;2022-10-16T18:53:59;27.20;;;11.20;;
57323;SDS011;43160;51.008;18.248;2022-10-16T19:03:46;22.70;;;12.60;;
57323;SDS011;43160;51.008;18.248;2022-10-16T19:13:34;31.10;;;16.60;;
57323;SDS011;43160;51.008;18.248;2022-10-16T19:23:19;18.80;;;8.40;;
57323;SDS011;43160;51.008;18.248;2022-10-16T19:33:03;27.10;;;14.60;;
57323;SDS011;43160;51.008;18.248;2022-10-16T19:42:47;25.20;;;12.70;;
57323;SDS011;43160;51.008;18.248;2022-10-16T19:52:31;26.90;;;13.00;;
57323;SDS011;43160;51.008;18.248;2022-10-16T20:09:36;31.20;;;14.90;;
57323;SDS011;43160;51.008;18.248;2022-10-16T20:19:19;32.80;;;15.50;;
57323;SDS011;43160;51.008;18.248;2022-10-16T20:29:03;32.40;;;14.70;;
57323;SDS011;43160;51.008;18.248;2022-10-16T20:38:49;26.10;;;14.80;;
57323;SDS011;43160;51.008;18.248;2022-10-16T20:48:34;22.30;;;9.50;;
57323;SDS011;43160;51.008;18.248;2022-10-16T20:58:34;25.00;;;13.20;;
57323;SDS011;43160;51.008;18.248;2022-10-16T21:08:22;23.30;;;12.00;;
57323;SDS011;43160;51.008;18.248;2022-10-16T21:18:06;26.20;;;13.80;;
57323;SDS011;43160;51.008;18.248;2022-10-16T21:27:49;29.10;;;14.70;;
57323;SDS011;43160;51.008;18.248;2022-10-16T21:37:32;28.20;;;10.40;;
57323;SDS011;43160;51.008;18.248;2022-10-16T21:47:15;25.60;;;12.20;;
57323;SDS011;43160;51.008;18.248;2022-10-16T21:56:59;29.40;;;15.60;;
57323;SDS011;43160;51.008;18.248;2022-10-16T22:06:43;29.70;;;13.70;;
57323;SDS011;43160;51.008;18.248;2022-10-16T22:16:32;25.10;;;12.90;;
57323;SDS011;43160;51.008;18.248;2022-10-16T22:26:17;28.60;;;12.50;;
57323;SDS011;43160;51.008;18.248;2022-10-16T22:36:01;34.50;;;17.70;;
57323;SDS011;43160;51.008;18.248;2022-10-16T22:45:46;31.40;;;16.10;;
57323;SDS011;43160;51.008;18.248;2022-10-16T22:55:29;33.90;;;17.40;;
57323;SDS011;43160;51.008;18.248;2022-10-16T23:05:13;31.30;;;16.20;;
57323;SDS011;43160;51.008;18.248;2022-10-16T23:14:58;27.80;;;15.30;;
57323;SDS011;43160;51.008;18.248;2022-10-16T23:24:41;30.40;;;14.30;;
57323;SDS011;43160;51.008;18.248;2022-10-16T23:34:24;34.20;;;16.80;;
57323;SDS011;43160;51.008;18.248;2022-10-16T23:44:08;36.60;;;15.60;;
57323;SDS011;43160;51.008;18.248;2022-10-16T23:53:51;35.40;;;14.90;;
